Blue Oak Ranch Reserve, California Weather observations

Data are for 10 minute period ending at time listed.
 Day   Time   Solar   Ave.   Ave.  Ave.  Vector  Max.   Baro.   Total    
  of    of     Rad.   Air    Rel.  Wind   Wind   Wind  Press.  Precip.   
Year   Day            Temp.  Hum.  Speed  Dir.   Gust                    
2014   (PST)  Kw/m2    F      %     mph   deg.    mph    mb.     in.     
-------------------------------------------------------------------------
 241   16:40   0.22   79.7    31    6.3   284    10.2   946.9    0.00 
 241   16:50   0.22   79.9    32    6.7   280    10.3   946.8    0.00 
 241   17:00   0.17   77.9    48    5.4   247    10.9   946.8    0.00 
 241   17:10   0.11   76.1    49    6.0   264    10.2   946.9    0.00 
 241   17:20   0.07   75.8    42    5.7   280     9.5   946.9    0.00 
 241   17:30   0.07   75.6    36    5.3   290     8.9   946.8    0.00 
 241   17:40   0.07   75.6    34    4.7   279     7.9   946.8    0.00 
 241   17:50   0.08   75.6    33    3.8   272     6.4   946.8    0.00 
 241   18:00   0.05   74.9    40    2.6   228     4.7   946.7    0.00 
 241   18:10   0.05   74.2    41    1.5   237     2.6   946.7    0.00 
 241   18:20   0.02   73.6    42    0.2   260     1.5   946.7    0.00 
 241   18:30   0.01   72.1    44    2.4   276     4.0   946.6    0.00 
 241   18:40   0.01   70.9    45    1.2   273     3.1   946.6    0.00 
 241   18:50   0.01   69.6    44    0.9   292     2.2   946.6    0.00 
 241   19:00   0.00   69.0    43    1.5    16     2.7   946.5    0.00 
 241   19:10   0.00   67.9    45    0.4   163     2.0   946.4    0.00 
 241   19:20   0.00   66.8    48    1.6   302     3.1   946.3    0.00 
 241   19:30   0.00   67.0    47    0.6   349     1.9   946.3    0.00 
 241   19:40   0.00   65.8    48    0.5    20     1.1   946.3    0.00 
 241   19:50   0.00   64.8    49    0.5    72     1.1   946.5    0.00 
 241   20:00   0.00   64.0    50    1.9   287     4.0   946.5    0.00 
 241   20:10   0.00   62.9    52    2.5    42     4.2   946.5    0.00 
 241   20:20   0.00   63.2    51    1.7   291     3.0   946.4    0.00 
 241   20:30   0.00   62.6    51    2.0   282     3.8   946.4    0.00 
 241   20:40   0.00   62.2    51    1.7    30     3.5   946.5    0.00 
 241   20:50   0.00   62.6    50    2.7    67     4.2   946.6    0.00 
 241   21:00   0.00   62.2    50    1.5    36     2.9   946.6    0.00 
 241   21:10   0.00   61.4    53    1.0   277     2.1   946.6    0.00 
 241   21:20   0.00   61.1    53    1.2   313     2.1   946.7    0.00 
 241   21:30   0.00   61.5    51    0.5    44     1.8   946.7    0.00 
 241   21:40   0.00   61.1    51    1.0   353     2.6   946.5    0.00 
 241   21:50   0.00   60.2    51    2.4   296     5.0   946.4    0.00 
 241   22:00   0.00   60.1    49    1.8   266     4.3   946.6    0.00 
 241   22:10   0.00   60.3    48    0.7     5     2.6   946.7    0.00 
 241   22:20   0.00   60.9    45    2.0    68     3.0   946.7    0.00 
 241   22:30   0.00   62.1    43    1.9    48     3.4   946.7    0.00 
 241   22:40   0.00   60.5    47    2.7   302     5.0   946.6    0.00 
 241   22:50   0.00   60.1    47    3.1   295     5.4   946.5    0.00 
 241   23:00   0.00   60.9    45    2.1   298     4.8   946.6    0.00 
 241   23:10   0.00   61.3    44    1.7   354     3.8   946.6    0.00 
 241   23:20   0.00   61.3    43    0.8   104     3.4   946.5    0.00 
 241   23:30   0.00   61.9    41    0.2   248     1.7   946.5    0.00 
 241   23:40   0.00   62.6    39    0.6   310     2.6   946.3    0.00 
 241   23:50   0.00   63.2    36    3.2   309     8.3   946.4    0.00 
 242    0:00   0.00   65.3    34    1.9   315     4.5   946.4    0.00 
 242    0:10   0.00   65.7    31    2.7    13     5.3   946.3    0.00 
 242    0:20   0.00   66.2    29    2.7   323     5.3   946.4    0.00 
 242    0:30   0.00   73.5    17    4.6     6     8.7   946.2    0.00 
 242    0:40   0.00   76.3    17    4.0   354     7.5   946.2    0.00 
 242    0:50   0.00   74.0    19    2.9   332     6.1   946.3    0.00 
 242    1:00   0.00   73.2    20    1.9   326     8.9   946.3    0.00 
 242    1:10   0.00   71.4    21    1.5   356     5.6   946.3    0.00 
 242    1:20   0.00   74.1    17    3.3     2     6.4   946.3    0.00 
 242    1:30   0.00   76.2    15    3.8     5     7.3   946.2    0.00 
 242    1:40   0.00   75.3    18    2.2    31     5.9   946.3    0.00 
 242    1:50   0.00   69.7    23    1.8   151     3.4   946.4    0.00 
 242    2:00   0.00   68.7    23    1.1    96     2.6   946.3    0.00 
 242    2:10   0.00   67.8    24    0.4    82     2.1   946.2    0.00 
 242    2:20   0.00   67.4    24    1.5     2     4.4   946.2    0.00 
 242    2:30   0.00   67.4    25    2.2    16     5.0   946.0    0.00 
 242    2:40   0.00   67.0    26    2.7     6     5.0   946.0    0.00 
 242    2:50   0.00   66.2    26    2.0   297     4.3   946.0    0.00 
 242    3:00   0.00   68.0    26    2.3   344     5.3   945.8    0.00 
 242    3:10   0.00   67.3    26    2.2   308     5.3   945.9    0.00 
 242    3:20   0.00   66.6    28    2.0   325     4.2   946.0    0.00 
 242    3:30   0.00   67.4    27    2.2   345     6.2   945.9    0.00 
 242    3:40   0.00   72.2    26    3.7    13     8.1   945.8    0.00 
 242    3:50   0.00   75.4    25    3.8    12     7.5   945.8    0.00 
 242    4:00   0.00   75.2    26    4.2    11     8.2   946.0    0.00 
 242    4:10   0.00   74.9    26    3.5     8     6.6   946.0    0.00 
 242    4:20   0.00   75.5    26    3.9     6     7.7   946.1    0.00 
 242    4:30   0.00   75.1    28    3.1   352     7.2   946.1    0.00 
 242    4:40   0.00   71.7    30    1.5    12     3.8   946.1    0.00 
 242    4:50   0.00   68.4    34    2.7   293     4.4   946.1    0.00 
 242    5:00   0.00   66.8    35    1.0   308     4.7   946.0    0.00 
 242    5:10   0.00   65.9    35    0.9   303     2.6   945.9    0.00 
 242    5:20   0.00   65.1    35    0.7   299     1.9   946.0    0.00 
 242    5:30   0.00   64.7    36    0.3   104     1.8   946.0    0.00 
 242    5:40   0.01   64.4    36    0.0   128     0.9   946.0    0.00 
 242    5:50   0.02   64.0    37    0.1   189     0.7   946.1    0.00 
 242    6:00   0.03   63.8    37    0.1   135     0.9   946.3    0.00 
 242    6:10   0.04   63.7    37    0.3   270     1.7   946.3    0.00 
 242    6:20   0.04   63.6    38    1.3   292     2.2   946.4    0.00 
 242    6:30   0.06   63.6    38    0.2   305     1.1   946.4    0.00 
 242    6:40   0.08   64.9    36    0.5   298     2.3   946.4    0.00 
 242    6:50   0.16   67.0    35    2.0   296     3.7   946.5    0.00 
 242    7:00   0.19   70.1    32    2.0   287     3.1   946.7    0.00 
 242    7:10   0.22   74.8    27    1.0   275     2.1   946.8    0.00 
 242    7:20   0.13   77.3    25    0.3   282     1.8   947.0    0.00 
 242    7:30   0.12   76.2    27    1.1   290     2.1   947.1    0.00 
 242    7:40   0.13   75.7    28    1.1   288     2.1   947.1    0.00 
 242    7:50   0.14   76.8    25    2.0   283     2.8   947.1    0.00 
 242    8:00   0.16   78.1    23    1.5   273     2.5   947.1    0.00 
 242    8:10   0.28   79.3    20    2.1   260     3.7   947.2    0.00 
 242    8:20   0.43   82.6    17    3.5   261     7.7   947.3    0.00 
 242    8:30   0.43   83.5    15    4.3   268     8.8   947.4    0.00 
 242    8:40   0.39   83.2    15    4.2   284     7.5   947.3    0.00 
 242    8:50   0.48   83.9    15    4.6   270    10.1   947.1    0.00 
 242    9:00   0.56   84.9    14    5.9   278    11.2   947.1    0.00 
 242    9:10   0.59   84.5    15    6.4   307    12.2   947.0    0.00 
 242    9:20   0.62   84.4    18    6.1   293    11.8   946.9    0.00 
 242    9:30   0.61   84.5    20    6.2   271    12.6   946.9    0.00 
 242    9:40   0.67   83.7    21    6.2   247    11.7   946.9    0.00 
 242    9:50   0.68   82.9    21    6.9   237    12.3   947.0    0.00 
 242   10:00   0.69   81.5    22    8.4   226    13.9   947.1    0.00 
 242   10:10   0.71   83.0    22    6.3   238    11.0   947.2    0.00 
 242   10:20   0.73   84.2    21    8.9   284    13.4   947.1    0.00 
 242   10:30   0.74   84.8    21    8.7   278    14.2   947.1    0.00 
 242   10:40   0.76   84.9    23    8.0   285    15.1   947.0    0.00 
 242   10:50   0.77   84.3    24    8.0   273    13.4   947.0    0.00 
 242   11:00   0.78   83.4    27    6.8   257    12.5   947.0    0.00 
 242   11:10   0.79   84.0    24    7.9   258    13.9   947.0    0.00 
 242   11:20   0.80   85.4    20    7.8   257    12.7   947.0    0.00 
 242   11:30   0.80   84.7    23    7.0   248    12.3   947.0    0.00 
 242   11:40   0.81   84.8    23    7.3   250    13.0   947.0    0.00 
 242   11:50   0.81   83.8    22    8.7   251    13.9   947.0    0.00 
 242   12:00   0.81   83.4    21    8.8   243    15.2   946.9    0.00 
 242   12:10   0.81   84.2    19    8.7   281    16.9   946.9    0.00 
 242   12:20   0.81   85.0    18    7.4   269    13.7   946.8    0.00 
 242   12:30   0.82   84.9    17    8.4   282    14.3   946.7    0.00 
 242   12:40   0.82   84.8    17    8.1   288    15.1   946.7    0.00 
 242   12:50   0.79   85.3    17    7.3   284    13.0   946.6    0.00 
 242   13:00   0.80   85.3    17    8.6   288    13.7   946.4    0.00 
 242   13:10   0.80   85.6    17    8.0   279    12.6   946.4    0.00 
 242   13:20   0.79   86.1    18    7.6   280    14.0   946.4    0.00 
 242   13:30   0.78   86.2    18    8.1   236    13.6   946.2    0.00 
 242   13:40   0.76   85.3    19    8.9   235    14.5   946.1    0.00 
 242   13:50   0.75   85.8    17    8.2   278    13.0   946.0    0.00 
 242   14:00   0.73   86.6    14    8.4   291    12.8   946.0    0.00 
 242   14:10   0.72   86.6    16    9.6   282    15.1   946.0    0.00 
 242   14:20   0.69   85.5    19    9.2   280    15.8   946.2    0.00 
 242   14:30   0.68   85.5    21    8.7   288    14.5   946.3    0.00 
 242   14:40   0.65   84.3    22    9.3   296    14.0   946.3    0.00 
 242   14:50   0.63   83.6    20    8.4   299    14.3   946.2    0.00 
 242   15:00   0.61   84.5    18    6.5   284    13.0   946.3    0.00 
 242   15:10   0.58   84.3    19    5.5   289    14.2   946.2    0.00 
 242   15:20   0.56   84.6    19    3.6   277     7.5   946.0    0.00 
 242   15:30   0.53   85.0    17    7.1   282    11.7   946.0    0.00 
 242   15:40   0.51   84.9    18    6.4   278    11.2   946.0    0.00 
 242   15:50   0.48   84.4    18    8.9   270    13.7   946.0    0.00 
 242   16:00   0.45   83.6    20    8.0   289    12.0   946.1    0.00 
 242   16:10   0.42   82.3    22    5.9   307    13.3   946.1    0.00 
 242   16:20   0.39   82.1    22    8.5   283    14.7   946.2    0.00 
 242   16:30   0.36   81.4    23    8.6   285    13.4   946.3    0.00 

Return to Blue Oak Ranch Reserve graphs page.


Western Regional Climate Center,wrcc@dri.edu